sensor_id;sensor_type;location;lat;lon;timestamp;temperature;humidity
50586;DHT22;36542;51.700;8.846;2022-10-16T00:00:39;12.80;99.90
50586;DHT22;36542;51.700;8.846;2022-10-16T00:03:05;12.80;99.90
50586;DHT22;36542;51.700;8.846;2022-10-16T00:05:31;12.80;99.90
50586;DHT22;36542;51.700;8.846;2022-10-16T00:07:57;12.80;99.90
50586;DHT22;36542;51.700;8.846;2022-10-16T00:10:23;12.70;99.90
50586;DHT22;36542;51.700;8.846;2022-10-16T00:12:48;12.60;99.90
50586;DHT22;36542;51.700;8.846;2022-10-16T00:15:14;12.70;99.90
50586;DHT22;36542;51.700;8.846;2022-10-16T00:17:39;12.70;99.90
50586;DHT22;36542;51.700;8.846;2022-10-16T00:20:05;12.70;99.90
50586;DHT22;36542;51.700;8.846;2022-10-16T00:22:31;12.70;99.90
50586;DHT22;36542;51.700;8.846;2022-10-16T00:24:56;12.70;99.90
50586;DHT22;36542;51.700;8.846;2022-10-16T00:27:22;12.70;99.90
50586;DHT22;36542;51.700;8.846;2022-10-16T00:29:52;12.70;99.90
50586;DHT22;36542;51.700;8.846;2022-10-16T00:32:19;12.60;99.90
50586;DHT22;36542;51.700;8.846;2022-10-16T00:34:45;12.60;99.90
50586;DHT22;36542;51.700;8.846;2022-10-16T00:37:11;12.60;99.90
50586;DHT22;36542;51.700;8.846;2022-10-16T00:39:37;12.60;99.90
50586;DHT22;36542;51.700;8.846;2022-10-16T00:42:02;12.50;99.90
50586;DHT22;36542;51.700;8.846;2022-10-16T00:44:50;12.40;99.90
50586;DHT22;36542;51.700;8.846;2022-10-16T00:47:36;12.40;99.90
50586;DHT22;36542;51.700;8.846;2022-10-16T00:52:44;12.40;99.90
50586;DHT22;36542;51.700;8.846;2022-10-16T00:55:11;12.40;99.90
50586;DHT22;36542;51.700;8.846;2022-10-16T00:57:37;12.40;99.90
50586;DHT22;36542;51.700;8.846;2022-10-16T01:00:07;12.30;99.90
50586;DHT22;36542;51.700;8.846;2022-10-16T01:02:32;12.40;99.90
50586;DHT22;36542;51.700;8.846;2022-10-16T01:04:58;12.40;99.90
50586;DHT22;36542;51.700;8.846;2022-10-16T01:10:30;12.40;99.90
50586;DHT22;36542;51.700;8.846;2022-10-16T01:15:47;12.40;99.90
50586;DHT22;36542;51.700;8.846;2022-10-16T01:20:45;12.40;99.90
50586;DHT22;36542;51.700;8.846;2022-10-16T01:23:36;12.30;99.90
50586;DHT22;36542;51.700;8.846;2022-10-16T01:31:30;12.30;99.90
50586;DHT22;36542;51.700;8.846;2022-10-16T01:34:13;12.20;99.90
50586;DHT22;36542;51.700;8.846;2022-10-16T01:36:45;12.30;99.90
50586;DHT22;36542;51.700;8.846;2022-10-16T01:39:13;12.30;99.90
50586;DHT22;36542;51.700;8.846;2022-10-16T01:41:50;12.40;99.90
50586;DHT22;36542;51.700;8.846;2022-10-16T01:44:21;12.40;99.90
50586;DHT22;36542;51.700;8.846;2022-10-16T01:46:50;12.40;99.90
50586;DHT22;36542;51.700;8.846;2022-10-16T01:49:17;12.40;99.90
50586;DHT22;36542;51.700;8.846;2022-10-16T01:51:46;12.30;99.90
50586;DHT22;36542;51.700;8.846;2022-10-16T01:54:14;12.30;99.90
50586;DHT22;36542;51.700;8.846;2022-10-16T01:56:41;12.30;99.90
50586;DHT22;36542;51.700;8.846;2022-10-16T01:59:13;12.30;99.90
50586;DHT22;36542;51.700;8.846;2022-10-16T02:01:44;12.30;99.90
50586;DHT22;36542;51.700;8.846;2022-10-16T02:04:15;12.50;99.90
50586;DHT22;36542;51.700;8.846;2022-10-16T02:06:42;12.50;99.90
50586;DHT22;36542;51.700;8.846;2022-10-16T02:09:08;12.50;99.90
50586;DHT22;36542;51.700;8.846;2022-10-16T02:11:34;12.60;99.90
50586;DHT22;36542;51.700;8.846;2022-10-16T02:14:04;12.60;99.90
50586;DHT22;36542;51.700;8.846;2022-10-16T02:16:51;12.60;99.90
50586;DHT22;36542;51.700;8.846;2022-10-16T02:19:19;12.60;99.90
50586;DHT22;36542;51.700;8.846;2022-10-16T02:22:02;12.60;99.90
50586;DHT22;36542;51.700;8.846;2022-10-16T02:24:33;12.60;99.90
50586;DHT22;36542;51.700;8.846;2022-10-16T02:27:09;12.70;99.90
50586;DHT22;36542;51.700;8.846;2022-10-16T02:29:47;12.70;99.90
50586;DHT22;36542;51.700;8.846;2022-10-16T02:32:19;12.60;99.90
50586;DHT22;36542;51.700;8.846;2022-10-16T02:34:47;12.60;99.90
50586;DHT22;36542;51.700;8.846;2022-10-16T02:37:14;12.60;99.90
50586;DHT22;36542;51.700;8.846;2022-10-16T02:39:40;12.60;99.90
50586;DHT22;36542;51.700;8.846;2022-10-16T02:42:11;12.60;99.90
50586;DHT22;36542;51.700;8.846;2022-10-16T02:44:37;12.60;99.90
50586;DHT22;36542;51.700;8.846;2022-10-16T02:47:02;12.60;99.90
50586;DHT22;36542;51.700;8.846;2022-10-16T02:49:28;12.60;99.90
50586;DHT22;36542;51.700;8.846;2022-10-16T02:51:53;12.60;99.90
50586;DHT22;36542;51.700;8.846;2022-10-16T02:54:19;12.70;99.90
50586;DHT22;36542;51.700;8.846;2022-10-16T02:56:44;12.70;99.90
50586;DHT22;36542;51.700;8.846;2022-10-16T02:59:10;12.70;99.90
50586;DHT22;36542;51.700;8.846;2022-10-16T03:01:35;12.80;99.90
50586;DHT22;36542;51.700;8.846;2022-10-16T03:04:01;12.70;99.90
50586;DHT22;36542;51.700;8.846;2022-10-16T03:06:26;12.70;99.90
50586;DHT22;36542;51.700;8.846;2022-10-16T03:08:52;12.60;99.90
50586;DHT22;36542;51.700;8.846;2022-10-16T03:11:17;12.60;99.90
50586;DHT22;36542;51.700;8.846;2022-10-16T03:13:43;12.60;99.90
50586;DHT22;36542;51.700;8.846;2022-10-16T03:16:08;12.50;99.90
50586;DHT22;36542;51.700;8.846;2022-10-16T03:18:34;12.50;99.90
50586;DHT22;36542;51.700;8.846;2022-10-16T03:20:59;12.50;99.90
50586;DHT22;36542;51.700;8.846;2022-10-16T03:23:25;12.50;99.90
50586;DHT22;36542;51.700;8.846;2022-10-16T03:25:51;12.40;99.90
50586;DHT22;36542;51.700;8.846;2022-10-16T03:28:16;12.40;99.90
50586;DHT22;36542;51.700;8.846;2022-10-16T03:30:43;12.40;99.90
50586;DHT22;36542;51.700;8.846;2022-10-16T03:33:08;12.40;99.90
50586;DHT22;36542;51.700;8.846;2022-10-16T03:35:34;12.40;99.90
50586;DHT22;36542;51.700;8.846;2022-10-16T03:38:00;12.40;99.90
50586;DHT22;36542;51.700;8.846;2022-10-16T03:40:25;12.40;99.90
50586;DHT22;36542;51.700;8.846;2022-10-16T03:42:51;12.40;99.90
50586;DHT22;36542;51.700;8.846;2022-10-16T03:45:17;12.40;99.90
50586;DHT22;36542;51.700;8.846;2022-10-16T03:47:42;12.40;99.90
50586;DHT22;36542;51.700;8.846;2022-10-16T03:50:08;12.40;99.90
50586;DHT22;36542;51.700;8.846;2022-10-16T03:52:34;12.40;99.90
50586;DHT22;36542;51.700;8.846;2022-10-16T03:54:59;12.30;99.90
50586;DHT22;36542;51.700;8.846;2022-10-16T03:57:25;12.30;99.90
50586;DHT22;36542;51.700;8.846;2022-10-16T03:59:50;12.30;99.90
50586;DHT22;36542;51.700;8.846;2022-10-16T04:02:16;12.30;99.90
50586;DHT22;36542;51.700;8.846;2022-10-16T04:04:42;12.40;99.90
50586;DHT22;36542;51.700;8.846;2022-10-16T04:07:07;12.50;99.90
50586;DHT22;36542;51.700;8.846;2022-10-16T04:09:33;12.50;99.90
50586;DHT22;36542;51.700;8.846;2022-10-16T04:11:58;12.50;99.90
50586;DHT22;36542;51.700;8.846;2022-10-16T04:14:24;12.60;99.90
50586;DHT22;36542;51.700;8.846;2022-10-16T04:16:49;12.50;99.90
50586;DHT22;36542;51.700;8.846;2022-10-16T04:19:15;12.60;99.90
50586;DHT22;36542;51.700;8.846;2022-10-16T04:21:40;12.70;99.90
50586;DHT22;36542;51.700;8.846;2022-10-16T04:24:06;12.70;99.90
50586;DHT22;36542;51.700;8.846;2022-10-16T04:26:31;12.60;99.90
50586;DHT22;36542;51.700;8.846;2022-10-16T04:28:57;12.70;99.90
50586;DHT22;36542;51.700;8.846;2022-10-16T04:31:22;12.80;99.90
50586;DHT22;36542;51.700;8.846;2022-10-16T04:33:48;12.80;99.90
50586;DHT22;36542;51.700;8.846;2022-10-16T04:36:13;12.80;99.90
50586;DHT22;36542;51.700;8.846;2022-10-16T04:38:39;12.80;99.90
50586;DHT22;36542;51.700;8.846;2022-10-16T04:41:06;12.80;99.90
50586;DHT22;36542;51.700;8.846;2022-10-16T04:43:32;12.80;99.90
50586;DHT22;36542;51.700;8.846;2022-10-16T04:45:58;12.80;99.90
50586;DHT22;36542;51.700;8.846;2022-10-16T04:48:23;12.80;99.90
50586;DHT22;36542;51.700;8.846;2022-10-16T04:50:49;12.70;99.90
50586;DHT22;36542;51.700;8.846;2022-10-16T04:53:14;12.70;99.90
50586;DHT22;36542;51.700;8.846;2022-10-16T04:55:41;12.70;99.90
50586;DHT22;36542;51.700;8.846;2022-10-16T04:58:06;12.70;99.90
50586;DHT22;36542;51.700;8.846;2022-10-16T05:00:32;12.60;99.90
50586;DHT22;36542;51.700;8.846;2022-10-16T05:02:58;12.60;99.90
50586;DHT22;36542;51.700;8.846;2022-10-16T05:05:24;12.60;99.90
50586;DHT22;36542;51.700;8.846;2022-10-16T05:07:50;12.60;99.90
50586;DHT22;36542;51.700;8.846;2022-10-16T05:10:16;12.70;99.90
50586;DHT22;36542;51.700;8.846;2022-10-16T05:12:42;12.70;99.90
50586;DHT22;36542;51.700;8.846;2022-10-16T05:15:08;12.70;99.90
50586;DHT22;36542;51.700;8.846;2022-10-16T05:17:33;12.70;99.90
50586;DHT22;36542;51.700;8.846;2022-10-16T05:19:59;12.70;99.90
50586;DHT22;36542;51.700;8.846;2022-10-16T05:22:25;12.70;99.90
50586;DHT22;36542;51.700;8.846;2022-10-16T05:24:50;12.70;99.90
50586;DHT22;36542;51.700;8.846;2022-10-16T05:27:16;12.70;99.90
50586;DHT22;36542;51.700;8.846;2022-10-16T05:29:45;12.70;99.90
50586;DHT22;36542;51.700;8.846;2022-10-16T05:32:12;12.70;99.90
50586;DHT22;36542;51.700;8.846;2022-10-16T05:34:38;12.70;99.90
50586;DHT22;36542;51.700;8.846;2022-10-16T05:37:04;12.70;99.90
50586;DHT22;36542;51.700;8.846;2022-10-16T05:39:30;12.70;99.90
50586;DHT22;36542;51.700;8.846;2022-10-16T05:41:55;12.70;99.90
50586;DHT22;36542;51.700;8.846;2022-10-16T05:44:21;12.70;99.90
50586;DHT22;36542;51.700;8.846;2022-10-16T05:46:46;12.60;99.90
50586;DHT22;36542;51.700;8.846;2022-10-16T05:49:12;12.60;99.90
50586;DHT22;36542;51.700;8.846;2022-10-16T05:51:38;12.60;99.90
50586;DHT22;36542;51.700;8.846;2022-10-16T05:54:03;12.60;99.90
50586;DHT22;36542;51.700;8.846;2022-10-16T05:56:29;12.50;99.90
50586;DHT22;36542;51.700;8.846;2022-10-16T05:58:54;12.50;99.90
50586;DHT22;36542;51.700;8.846;2022-10-16T06:01:20;12.50;99.90
50586;DHT22;36542;51.700;8.846;2022-10-16T06:03:50;12.50;99.90
50586;DHT22;36542;51.700;8.846;2022-10-16T06:06:18;12.60;99.90
50586;DHT22;36542;51.700;8.846;2022-10-16T06:08:46;12.70;99.90
50586;DHT22;36542;51.700;8.846;2022-10-16T06:11:14;12.70;99.90
50586;DHT22;36542;51.700;8.846;2022-10-16T06:13:40;12.80;99.90
50586;DHT22;36542;51.700;8.846;2022-10-16T06:16:11;12.80;99.90
50586;DHT22;36542;51.700;8.846;2022-10-16T06:18:37;12.90;99.90
50586;DHT22;36542;51.700;8.846;2022-10-16T06:21:17;12.90;99.90
50586;DHT22;36542;51.700;8.846;2022-10-16T06:23:43;12.90;99.90
50586;DHT22;36542;51.700;8.846;2022-10-16T06:26:12;12.90;99.90
50586;DHT22;36542;51.700;8.846;2022-10-16T06:28:39;13.00;99.90
50586;DHT22;36542;51.700;8.846;2022-10-16T06:31:06;13.00;99.90
50586;DHT22;36542;51.700;8.846;2022-10-16T06:33:32;13.10;99.90
50586;DHT22;36542;51.700;8.846;2022-10-16T06:36:06;13.10;99.90
50586;DHT22;36542;51.700;8.846;2022-10-16T06:38:32;13.10;99.90
50586;DHT22;36542;51.700;8.846;2022-10-16T06:40:58;13.20;99.90
50586;DHT22;36542;51.700;8.846;2022-10-16T06:43:24;13.30;99.90
50586;DHT22;36542;51.700;8.846;2022-10-16T06:45:56;13.30;99.90
50586;DHT22;36542;51.700;8.846;2022-10-16T06:48:23;13.40;99.90
50586;DHT22;36542;51.700;8.846;2022-10-16T06:50:59;13.50;99.90
50586;DHT22;36542;51.700;8.846;2022-10-16T06:53:26;13.60;99.90
50586;DHT22;36542;51.700;8.846;2022-10-16T06:55:52;13.60;99.90
50586;DHT22;36542;51.700;8.846;2022-10-16T06:58:18;13.70;99.90
50586;DHT22;36542;51.700;8.846;2022-10-16T07:00:44;13.70;99.90
50586;DHT22;36542;51.700;8.846;2022-10-16T07:03:09;13.80;99.90
50586;DHT22;36542;51.700;8.846;2022-10-16T07:05:39;13.90;99.90
50586;DHT22;36542;51.700;8.846;2022-10-16T07:08:05;13.90;99.90
50586;DHT22;36542;51.700;8.846;2022-10-16T07:10:31;13.90;99.90
50586;DHT22;36542;51.700;8.846;2022-10-16T07:12:57;13.90;99.90
50586;DHT22;36542;51.700;8.846;2022-10-16T07:15:24;13.90;99.90
50586;DHT22;36542;51.700;8.846;2022-10-16T07:17:50;13.90;99.90
50586;DHT22;36542;51.700;8.846;2022-10-16T07:20:15;13.90;99.90
50586;DHT22;36542;51.700;8.846;2022-10-16T07:22:41;14.00;99.90
50586;DHT22;36542;51.700;8.846;2022-10-16T07:25:07;14.10;99.90
50586;DHT22;36542;51.700;8.846;2022-10-16T07:27:32;14.20;99.90
50586;DHT22;36542;51.700;8.846;2022-10-16T07:29:58;14.20;99.90
50586;DHT22;36542;51.700;8.846;2022-10-16T07:32:23;14.20;99.90
50586;DHT22;36542;51.700;8.846;2022-10-16T07:34:51;14.30;99.90
50586;DHT22;36542;51.700;8.846;2022-10-16T07:37:17;14.30;99.90
50586;DHT22;36542;51.700;8.846;2022-10-16T07:39:42;14.80;99.90
50586;DHT22;36542;51.700;8.846;2022-10-16T07:42:08;15.60;99.90
50586;DHT22;36542;51.700;8.846;2022-10-16T07:44:34;16.60;99.90
50586;DHT22;36542;51.700;8.846;2022-10-16T07:46:59;17.40;99.90
50586;DHT22;36542;51.700;8.846;2022-10-16T07:49:25;18.10;99.90
50586;DHT22;36542;51.700;8.846;2022-10-16T07:51:50;18.30;99.90
50586;DHT22;36542;51.700;8.846;2022-10-16T07:54:16;18.60;99.90
50586;DHT22;36542;51.700;8.846;2022-10-16T07:56:41;19.00;99.90
50586;DHT22;36542;51.700;8.846;2022-10-16T07:59:07;18.50;99.90
50586;DHT22;36542;51.700;8.846;2022-10-16T08:01:32;18.80;99.90
50586;DHT22;36542;51.700;8.846;2022-10-16T08:03:58;19.30;99.90
50586;DHT22;36542;51.700;8.846;2022-10-16T08:06:23;19.40;99.90
50586;DHT22;36542;51.700;8.846;2022-10-16T08:08:49;18.90;99.90
50586;DHT22;36542;51.700;8.846;2022-10-16T08:11:15;18.60;99.90
50586;DHT22;36542;51.700;8.846;2022-10-16T08:13:41;18.10;99.90
50586;DHT22;36542;51.700;8.846;2022-10-16T08:16:07;17.40;99.90
50586;DHT22;36542;51.700;8.846;2022-10-16T08:18:37;17.30;99.90
50586;DHT22;36542;51.700;8.846;2022-10-16T08:21:04;18.10;99.90
50586;DHT22;36542;51.700;8.846;2022-10-16T08:23:30;19.20;99.90
50586;DHT22;36542;51.700;8.846;2022-10-16T08:26:01;18.90;99.90
50586;DHT22;36542;51.700;8.846;2022-10-16T08:28:27;19.30;99.90
50586;DHT22;36542;51.700;8.846;2022-10-16T08:30:53;19.40;99.90
50586;DHT22;36542;51.700;8.846;2022-10-16T08:33:18;18.60;99.90
50586;DHT22;36542;51.700;8.846;2022-10-16T08:35:51;17.80;99.90
50586;DHT22;36542;51.700;8.846;2022-10-16T08:38:16;18.10;99.90
50586;DHT22;36542;51.700;8.846;2022-10-16T08:40:42;18.70;99.90
50586;DHT22;36542;51.700;8.846;2022-10-16T08:48:46;18.90;99.90
50586;DHT22;36542;51.700;8.846;2022-10-16T08:51:29;19.00;99.90
50586;DHT22;36542;51.700;8.846;2022-10-16T08:54:02;19.20;99.90
50586;DHT22;36542;51.700;8.846;2022-10-16T08:56:28;19.30;99.90
50586;DHT22;36542;51.700;8.846;2022-10-16T08:58:54;19.40;99.90
50586;DHT22;36542;51.700;8.846;2022-10-16T09:01:22;19.70;99.90
50586;DHT22;36542;51.700;8.846;2022-10-16T09:17:41;19.70;99.90
50586;DHT22;36542;51.700;8.846;2022-10-16T09:20:27;19.70;99.90
50586;DHT22;36542;51.700;8.846;2022-10-16T09:23:19;19.20;99.90
50586;DHT22;36542;51.700;8.846;2022-10-16T09:25:47;18.60;99.90
50586;DHT22;36542;51.700;8.846;2022-10-16T09:28:14;18.90;99.90
50586;DHT22;36542;51.700;8.846;2022-10-16T09:30:40;19.20;99.90
50586;DHT22;36542;51.700;8.846;2022-10-16T09:33:08;19.60;99.90
50586;DHT22;36542;51.700;8.846;2022-10-16T09:35:45;19.60;99.90
50586;DHT22;36542;51.700;8.846;2022-10-16T09:38:26;19.40;99.90
50586;DHT22;36542;51.700;8.846;2022-10-16T09:40:54;19.80;99.90
50586;DHT22;36542;51.700;8.846;2022-10-16T09:46:33;19.20;99.90
50586;DHT22;36542;51.700;8.846;2022-10-16T09:49:01;19.30;99.90
50586;DHT22;36542;51.700;8.846;2022-10-16T09:51:32;18.90;99.90
50586;DHT22;36542;51.700;8.846;2022-10-16T09:54:02;18.80;99.90
50586;DHT22;36542;51.700;8.846;2022-10-16T09:56:30;18.70;99.90
50586;DHT22;36542;51.700;8.846;2022-10-16T09:59:10;18.50;99.90
50586;DHT22;36542;51.700;8.846;2022-10-16T10:01:38;18.20;99.90
50586;DHT22;36542;51.700;8.846;2022-10-16T10:04:05;17.90;99.90
50586;DHT22;36542;51.700;8.846;2022-10-16T10:06:51;17.70;99.90
50586;DHT22;36542;51.700;8.846;2022-10-16T10:09:21;17.70;99.90
50586;DHT22;36542;51.700;8.846;2022-10-16T10:11:54;17.80;99.90
50586;DHT22;36542;51.700;8.846;2022-10-16T10:14:24;17.90;99.90
50586;DHT22;36542;51.700;8.846;2022-10-16T10:16:52;18.20;99.90
50586;DHT22;36542;51.700;8.846;2022-10-16T10:19:20;18.80;99.90
50586;DHT22;36542;51.700;8.846;2022-10-16T10:21:47;18.50;99.90
50586;DHT22;36542;51.700;8.846;2022-10-16T10:24:14;18.20;99.90
50586;DHT22;36542;51.700;8.846;2022-10-16T10:27:11;17.90;99.90
50586;DHT22;36542;51.700;8.846;2022-10-16T10:29:45;17.50;99.90
50586;DHT22;36542;51.700;8.846;2022-10-16T10:32:38;17.60;99.90
50586;DHT22;36542;51.700;8.846;2022-10-16T10:35:44;17.40;99.90
50586;DHT22;36542;51.700;8.846;2022-10-16T10:40:52;17.70;99.90
50586;DHT22;36542;51.700;8.846;2022-10-16T10:46:34;17.40;99.90
50586;DHT22;36542;51.700;8.846;2022-10-16T10:49:16;17.20;99.90
50586;DHT22;36542;51.700;8.846;2022-10-16T10:51:54;16.90;99.90
50586;DHT22;36542;51.700;8.846;2022-10-16T10:54:49;16.70;99.90
50586;DHT22;36542;51.700;8.846;2022-10-16T11:00:30;16.50;99.90
50586;DHT22;36542;51.700;8.846;2022-10-16T11:03:13;16.80;99.90
50586;DHT22;36542;51.700;8.846;2022-10-16T11:06:07;17.50;99.90
50586;DHT22;36542;51.700;8.846;2022-10-16T11:08:39;17.90;99.90
50586;DHT22;36542;51.700;8.846;2022-10-16T11:11:32;17.90;99.90
50586;DHT22;36542;51.700;8.846;2022-10-16T11:14:14;17.80;99.90
50586;DHT22;36542;51.700;8.846;2022-10-16T11:22:17;18.80;99.90
50586;DHT22;36542;51.700;8.846;2022-10-16T11:30:29;19.40;99.90
50586;DHT22;36542;51.700;8.846;2022-10-16T11:35:44;19.10;99.90
50586;DHT22;36542;51.700;8.846;2022-10-16T11:38:30;19.10;99.90
50586;DHT22;36542;51.700;8.846;2022-10-16T11:41:03;18.90;99.90
50586;DHT22;36542;51.700;8.846;2022-10-16T11:43:37;18.70;99.90
50586;DHT22;36542;51.700;8.846;2022-10-16T11:46:17;19.00;99.90
50586;DHT22;36542;51.700;8.846;2022-10-16T11:48:49;19.10;99.90
50586;DHT22;36542;51.700;8.846;2022-10-16T11:56:59;19.10;99.90
50586;DHT22;36542;51.700;8.846;2022-10-16T11:59:35;19.10;99.90
50586;DHT22;36542;51.700;8.846;2022-10-16T12:05:18;19.10;99.90
50586;DHT22;36542;51.700;8.846;2022-10-16T12:08:10;19.30;99.90
50586;DHT22;36542;51.700;8.846;2022-10-16T12:10:37;19.60;99.90
50586;DHT22;36542;51.700;8.846;2022-10-16T12:13:25;19.60;99.90
50586;DHT22;36542;51.700;8.846;2022-10-16T12:15:50;19.70;99.90
50586;DHT22;36542;51.700;8.846;2022-10-16T12:18:23;19.60;99.90
50586;DHT22;36542;51.700;8.846;2022-10-16T12:20:56;19.20;99.90
50586;DHT22;36542;51.700;8.846;2022-10-16T12:23:30;19.30;99.90
50586;DHT22;36542;51.700;8.846;2022-10-16T12:25:58;19.20;99.90
50586;DHT22;36542;51.700;8.846;2022-10-16T12:28:31;19.30;99.90
50586;DHT22;36542;51.700;8.846;2022-10-16T12:31:03;19.40;99.90
50586;DHT22;36542;51.700;8.846;2022-10-16T12:33:34;19.50;99.90
50586;DHT22;36542;51.700;8.846;2022-10-16T12:36:05;19.70;99.90
50586;DHT22;36542;51.700;8.846;2022-10-16T12:38:50;19.90;99.90
50586;DHT22;36542;51.700;8.846;2022-10-16T12:41:29;20.10;99.90
50586;DHT22;36542;51.700;8.846;2022-10-16T12:43:55;19.80;99.90
50586;DHT22;36542;51.700;8.846;2022-10-16T12:49:06;19.90;99.90
50586;DHT22;36542;51.700;8.846;2022-10-16T12:51:34;19.90;99.90
50586;DHT22;36542;51.700;8.846;2022-10-16T12:54:00;20.00;99.90
50586;DHT22;36542;51.700;8.846;2022-10-16T13:00:03;20.10;99.90
50586;DHT22;36542;51.700;8.846;2022-10-16T13:11:42;19.80;99.90
50586;DHT22;36542;51.700;8.846;2022-10-16T13:27:52;19.80;99.90
50586;DHT22;36542;51.700;8.846;2022-10-16T13:30:27;19.80;99.90
50586;DHT22;36542;51.700;8.846;2022-10-16T13:33:04;19.60;99.90
50586;DHT22;36542;51.700;8.846;2022-10-16T13:35:33;19.40;99.90
50586;DHT22;36542;51.700;8.846;2022-10-16T13:38:14;19.40;99.90
50586;DHT22;36542;51.700;8.846;2022-10-16T13:40:54;19.30;99.90
50586;DHT22;36542;51.700;8.846;2022-10-16T13:43:24;19.40;99.90
50586;DHT22;36542;51.700;8.846;2022-10-16T13:45:59;19.60;99.90
50586;DHT22;36542;51.700;8.846;2022-10-16T13:48:25;19.70;99.90
50586;DHT22;36542;51.700;8.846;2022-10-16T13:53:34;20.20;99.90
50586;DHT22;36542;51.700;8.846;2022-10-16T13:56:01;20.20;99.90
50586;DHT22;36542;51.700;8.846;2022-10-16T13:58:27;20.30;99.90
50586;DHT22;36542;51.700;8.846;2022-10-16T14:01:31;20.20;99.90
50586;DHT22;36542;51.700;8.846;2022-10-16T14:03:50;20.30;99.90
50586;DHT22;36542;51.700;8.846;2022-10-16T14:06:19;20.20;99.90
50586;DHT22;36542;51.700;8.846;2022-10-16T14:09:01;20.00;99.90
50586;DHT22;36542;51.700;8.846;2022-10-16T14:11:27;19.90;99.90
50586;DHT22;36542;51.700;8.846;2022-10-16T14:13:53;19.80;99.90
50586;DHT22;36542;51.700;8.846;2022-10-16T14:16:30;19.70;99.90
50586;DHT22;36542;51.700;8.846;2022-10-16T14:19:04;19.70;99.90
50586;DHT22;36542;51.700;8.846;2022-10-16T14:21:37;19.70;99.90
50586;DHT22;36542;51.700;8.846;2022-10-16T14:24:33;19.70;99.90
50586;DHT22;36542;51.700;8.846;2022-10-16T14:27:00;19.70;99.90
50586;DHT22;36542;51.700;8.846;2022-10-16T14:29:28;19.80;99.90
50586;DHT22;36542;51.700;8.846;2022-10-16T14:32:01;19.70;99.90
50586;DHT22;36542;51.700;8.846;2022-10-16T14:34:32;19.70;99.90
50586;DHT22;36542;51.700;8.846;2022-10-16T14:37:14;19.80;99.90
50586;DHT22;36542;51.700;8.846;2022-10-16T14:39:49;19.80;99.90
50586;DHT22;36542;51.700;8.846;2022-10-16T14:42:17;19.70;99.90
50586;DHT22;36542;51.700;8.846;2022-10-16T14:44:45;19.70;99.90
50586;DHT22;36542;51.700;8.846;2022-10-16T14:47:13;19.70;99.90
50586;DHT22;36542;51.700;8.846;2022-10-16T14:49:41;19.50;99.90
50586;DHT22;36542;51.700;8.846;2022-10-16T14:52:12;19.20;99.90
50586;DHT22;36542;51.700;8.846;2022-10-16T14:54:38;18.90;99.90
50586;DHT22;36542;51.700;8.846;2022-10-16T14:57:03;18.70;99.90
50586;DHT22;36542;51.700;8.846;2022-10-16T14:59:38;18.60;99.90
50586;DHT22;36542;51.700;8.846;2022-10-16T15:02:31;18.30;99.90
50586;DHT22;36542;51.700;8.846;2022-10-16T15:04:59;18.20;99.90
50586;DHT22;36542;51.700;8.846;2022-10-16T15:07:27;18.00;99.90
50586;DHT22;36542;51.700;8.846;2022-10-16T15:09:53;17.90;99.90
50586;DHT22;36542;51.700;8.846;2022-10-16T15:12:19;17.80;99.90
50586;DHT22;36542;51.700;8.846;2022-10-16T15:14:44;17.60;99.90
50586;DHT22;36542;51.700;8.846;2022-10-16T15:17:11;17.40;99.90
50586;DHT22;36542;51.700;8.846;2022-10-16T15:19:36;17.30;99.90
50586;DHT22;36542;51.700;8.846;2022-10-16T15:22:02;17.30;99.90
50586;DHT22;36542;51.700;8.846;2022-10-16T15:24:28;17.40;99.90
50586;DHT22;36542;51.700;8.846;2022-10-16T15:26:53;17.40;99.90
50586;DHT22;36542;51.700;8.846;2022-10-16T15:29:19;17.50;99.90
50586;DHT22;36542;51.700;8.846;2022-10-16T15:31:44;17.70;99.90
50586;DHT22;36542;51.700;8.846;2022-10-16T15:34:12;17.80;99.90
50586;DHT22;36542;51.700;8.846;2022-10-16T15:36:38;18.00;99.90
50586;DHT22;36542;51.700;8.846;2022-10-16T15:39:25;17.90;99.90
50586;DHT22;36542;51.700;8.846;2022-10-16T15:41:50;17.90;99.90
50586;DHT22;36542;51.700;8.846;2022-10-16T15:44:17;17.70;99.90
50586;DHT22;36542;51.700;8.846;2022-10-16T15:46:43;17.60;99.90
50586;DHT22;36542;51.700;8.846;2022-10-16T15:49:09;17.50;99.90
50586;DHT22;36542;51.700;8.846;2022-10-16T15:51:39;17.30;99.90
50586;DHT22;36542;51.700;8.846;2022-10-16T15:54:04;17.20;99.90
50586;DHT22;36542;51.700;8.846;2022-10-16T15:56:30;17.10;99.90
50586;DHT22;36542;51.700;8.846;2022-10-16T15:58:59;17.10;99.90
50586;DHT22;36542;51.700;8.846;2022-10-16T16:01:24;17.10;99.90
50586;DHT22;36542;51.700;8.846;2022-10-16T16:03:53;17.00;99.90
50586;DHT22;36542;51.700;8.846;2022-10-16T16:06:19;16.90;99.90
50586;DHT22;36542;51.700;8.846;2022-10-16T16:08:45;16.50;99.90
50586;DHT22;36542;51.700;8.846;2022-10-16T16:11:12;16.40;99.90
50586;DHT22;36542;51.700;8.846;2022-10-16T16:13:39;16.30;99.90
50586;DHT22;36542;51.700;8.846;2022-10-16T16:16:10;16.10;99.90
50586;DHT22;36542;51.700;8.846;2022-10-16T16:18:36;16.10;99.90
50586;DHT22;36542;51.700;8.846;2022-10-16T16:21:02;16.00;99.90
50586;DHT22;36542;51.700;8.846;2022-10-16T16:23:28;15.90;99.90
50586;DHT22;36542;51.700;8.846;2022-10-16T16:26:22;15.90;99.90
50586;DHT22;36542;51.700;8.846;2022-10-16T16:28:52;15.80;99.90
50586;DHT22;36542;51.700;8.846;2022-10-16T16:31:19;15.70;99.90
50586;DHT22;36542;51.700;8.846;2022-10-16T16:33:44;15.60;99.90
50586;DHT22;36542;51.700;8.846;2022-10-16T16:36:11;15.40;99.90
50586;DHT22;36542;51.700;8.846;2022-10-16T16:38:36;15.20;99.90
50586;DHT22;36542;51.700;8.846;2022-10-16T16:43:41;15.30;99.90
50586;DHT22;36542;51.700;8.846;2022-10-16T16:46:07;15.10;99.90
50586;DHT22;36542;51.700;8.846;2022-10-16T16:48:33;15.00;99.90
50586;DHT22;36542;51.700;8.846;2022-10-16T16:51:07;15.00;99.90
50586;DHT22;36542;51.700;8.846;2022-10-16T16:53:34;15.00;99.90
50586;DHT22;36542;51.700;8.846;2022-10-16T16:56:06;14.90;99.90
50586;DHT22;36542;51.700;8.846;2022-10-16T16:58:32;14.80;99.90
50586;DHT22;36542;51.700;8.846;2022-10-16T17:00:58;14.90;99.90
50586;DHT22;36542;51.700;8.846;2022-10-16T17:03:34;14.90;99.90
50586;DHT22;36542;51.700;8.846;2022-10-16T17:06:04;14.80;99.90
50586;DHT22;36542;51.700;8.846;2022-10-16T17:08:30;14.90;99.90
50586;DHT22;36542;51.700;8.846;2022-10-16T17:10:57;14.90;99.90
50586;DHT22;36542;51.700;8.846;2022-10-16T17:13:24;14.90;99.90
50586;DHT22;36542;51.700;8.846;2022-10-16T17:15:50;14.90;99.90
50586;DHT22;36542;51.700;8.846;2022-10-16T17:18:17;14.90;99.90
50586;DHT22;36542;51.700;8.846;2022-10-16T17:20:43;14.80;99.90
50586;DHT22;36542;51.700;8.846;2022-10-16T17:23:10;14.70;99.90
50586;DHT22;36542;51.700;8.846;2022-10-16T17:25:36;14.60;99.90
50586;DHT22;36542;51.700;8.846;2022-10-16T17:28:03;14.60;99.90